createdAt,value
2022-12-28T00:02:18.452Z,4.86
2022-12-28T00:05:06.883Z,4.85
2022-12-28T00:07:54.902Z,4.85
2022-12-28T00:11:09.463Z,4.73
2022-12-28T00:13:50.820Z,4.75
2022-12-28T00:16:41.686Z,4.96
2022-12-28T00:19:29.743Z,4.97
2022-12-28T00:22:17.709Z,4.94
2022-12-28T00:25:06.630Z,4.81
2022-12-28T00:27:54.568Z,4.97
2022-12-28T00:30:42.532Z,5.02
2022-12-28T00:33:31.900Z,5.02
2022-12-28T00:36:20.025Z,4.99
2022-12-28T00:39:08.653Z,4.90
2022-12-28T00:41:56.585Z,5.13
2022-12-28T00:44:44.966Z,5.31
2022-12-28T00:47:32.882Z,5.37
2022-12-28T00:50:22.183Z,5.45
2022-12-28T00:53:10.218Z,5.36
2022-12-28T00:56:05.785Z,5.49
2022-12-28T00:58:58.297Z,5.35
2022-12-28T01:01:46.336Z,5.44
2022-12-28T01:04:35.289Z,5.40
2022-12-28T01:07:24.547Z,5.37
2022-12-28T01:10:12.527Z,5.66
2022-12-28T01:13:00.451Z,5.60
2022-12-28T01:15:48.402Z,5.74
2022-12-28T01:18:36.375Z,5.77
2022-12-28T01:21:26.035Z,5.85
2022-12-28T01:24:15.318Z,5.87
2022-12-28T01:27:03.256Z,5.89
2022-12-28T01:29:51.611Z,5.99
2022-12-28T01:32:39.559Z,6.19
2022-12-28T01:35:28.571Z,6.14
2022-12-28T01:38:16.512Z,6.14
2022-12-28T01:41:07.907Z,6.08
2022-12-28T01:44:44.953Z,6.15
2022-12-28T01:47:36.613Z,6.07
2022-12-28T01:50:28.061Z,6.18
2022-12-28T01:53:16.627Z,5.97
2022-12-28T01:56:06.475Z,5.84
2022-12-28T01:58:55.874Z,5.90
2022-12-28T02:01:44.407Z,5.90
2022-12-28T02:04:32.394Z,5.72
2022-12-28T02:07:31.096Z,5.90
2022-12-28T02:10:44.188Z,5.88
2022-12-28T02:13:29.818Z,5.75
2022-12-28T02:16:18.900Z,5.75
2022-12-28T02:19:10.263Z,5.72
2022-12-28T02:22:14.662Z,5.60
2022-12-28T02:25:25.753Z,5.68
2022-12-28T02:28:30.988Z,5.62
2022-12-28T02:31:27.907Z,5.60
2022-12-28T02:34:23.798Z,5.47
2022-12-28T02:37:17.250Z,5.40
2022-12-28T02:40:10.586Z,5.66
2022-12-28T02:42:59.018Z,5.57
2022-12-28T02:46:06.091Z,5.50
2022-12-28T02:49:12.933Z,5.66
2022-12-28T02:52:09.699Z,5.60
2022-12-28T02:55:38.939Z,5.63
2022-12-28T02:58:55.915Z,5.72
2022-12-28T03:02:05.555Z,5.60
2022-12-28T03:05:11.521Z,5.61
2022-12-28T03:08:20.137Z,5.66
2022-12-28T03:11:16.020Z,5.67
2022-12-28T03:14:09.147Z,5.65
2022-12-28T03:17:18.510Z,5.81
2022-12-28T03:20:30.196Z,5.76
2022-12-28T03:23:41.747Z,5.69
2022-12-28T03:26:50.768Z,5.81
2022-12-28T03:30:01.725Z,5.67
2022-12-28T03:32:51.633Z,5.56
2022-12-28T03:35:47.039Z,5.65
2022-12-28T03:38:45.006Z,5.54
2022-12-28T03:41:38.815Z,5.70
2022-12-28T03:44:52.725Z,5.59
2022-12-28T03:47:43.501Z,5.41
2022-12-28T03:50:35.924Z,5.46
2022-12-28T03:53:30.123Z,5.39
2022-12-28T03:56:21.467Z,5.48
2022-12-28T03:59:10.492Z,5.48
2022-12-28T04:02:02.888Z,5.56
2022-12-28T04:04:52.843Z,5.63
2022-12-28T04:07:40.909Z,5.66
2022-12-28T04:10:30.284Z,5.67
2022-12-28T04:13:19.363Z,5.69
2022-12-28T04:16:14.769Z,5.73
2022-12-28T04:19:04.384Z,5.72
2022-12-28T04:21:52.736Z,5.79
2022-12-28T04:24:41.576Z,5.57
2022-12-28T04:27:31.075Z,5.76
2022-12-28T04:30:24.111Z,5.71
2022-12-28T04:33:12.234Z,5.57
2022-12-28T04:36:06.876Z,5.75
2022-12-28T04:38:55.350Z,5.62
2022-12-28T04:41:43.307Z,5.76
2022-12-28T04:44:33.444Z,5.77
2022-12-28T04:47:21.462Z,5.82
2022-12-28T04:50:09.952Z,5.87
2022-12-28T04:52:59.139Z,5.88
2022-12-28T04:55:47.284Z,5.99
2022-12-28T04:58:35.242Z,6.02
2022-12-28T05:01:24.619Z,6.05
2022-12-28T05:04:12.769Z,5.91
2022-12-28T05:07:00.673Z,6.01
2022-12-28T05:09:48.597Z,6.01
2022-12-28T05:12:36.568Z,6.01
2022-12-28T05:15:24.515Z,5.96
2022-12-28T05:18:13.747Z,6.14
2022-12-28T05:21:04.615Z,5.91
2022-12-28T05:23:53.922Z,5.95
2022-12-28T05:26:41.954Z,5.97
2022-12-28T05:29:29.957Z,6.03
2022-12-28T05:32:18.065Z,6.07
2022-12-28T05:35:09.039Z,6.05
2022-12-28T05:37:56.947Z,5.89
2022-12-28T05:40:44.906Z,5.94
2022-12-28T05:43:33.028Z,5.90
2022-12-28T05:46:24.158Z,6.10
2022-12-28T05:49:12.250Z,6.16
2022-12-28T05:52:01.889Z,6.06
2022-12-28T05:54:49.802Z,6.09
2022-12-28T05:57:37.740Z,5.90
2022-12-28T06:00:25.763Z,6.07
2022-12-28T06:03:13.749Z,5.85
2022-12-28T06:06:09.828Z,5.94
2022-12-28T06:08:59.373Z,6.00
2022-12-28T06:11:47.470Z,6.16
2022-12-28T06:14:35.390Z,6.11
2022-12-28T06:17:23.301Z,5.94
2022-12-28T06:20:12.221Z,6.04
2022-12-28T06:23:00.119Z,6.20
2022-12-28T06:25:49.389Z,6.27
2022-12-28T06:28:37.977Z,6.26
2022-12-28T06:31:28.213Z,6.23
2022-12-28T06:34:16.166Z,6.33
2022-12-28T06:37:04.341Z,6.07
2022-12-28T06:39:52.250Z,6.07
2022-12-28T06:42:41.499Z,6.24
2022-12-28T06:45:29.474Z,6.30
2022-12-28T06:48:17.469Z,6.21
2022-12-28T06:51:07.224Z,6.24
2022-12-28T06:53:55.803Z,6.23
2022-12-28T06:56:43.689Z,6.35
2022-12-28T06:59:32.964Z,6.39
2022-12-28T07:02:21.074Z,6.46
2022-12-28T07:04:48.755Z,6.41
2022-12-28T07:07:16.387Z,6.46
2022-12-28T07:09:44.676Z,6.03
2022-12-28T07:12:12.411Z,6.59
2022-12-28T07:14:41.458Z,6.42
2022-12-28T07:17:09.180Z,6.36
2022-12-28T07:19:36.797Z,6.59
2022-12-28T07:22:04.435Z,6.36
2022-12-28T07:24:32.080Z,6.47
2022-12-28T07:26:59.688Z,6.59
2022-12-28T07:29:27.381Z,6.55
2022-12-28T07:31:56.611Z,6.45
2022-12-28T07:34:24.712Z,6.59
2022-12-28T07:36:52.428Z,6.52
2022-12-28T07:39:20.201Z,6.45
2022-12-28T07:41:47.830Z,6.58
2022-12-28T07:44:23.827Z,6.77
2022-12-28T07:46:53.174Z,6.68
2022-12-28T07:49:22.165Z,6.87
2022-12-28T07:51:50.002Z,6.94
2022-12-28T07:54:17.616Z,6.88
2022-12-28T07:56:45.244Z,6.27
2022-12-28T07:59:14.172Z,6.92
2022-12-28T08:01:41.920Z,7.03
2022-12-28T08:04:13.154Z,6.75
2022-12-28T08:06:44.164Z,6.78
2022-12-28T08:09:14.115Z,6.74
2022-12-28T08:11:43.603Z,6.92
2022-12-28T08:14:12.489Z,6.93
2022-12-28T08:16:42.360Z,6.85
2022-12-28T08:19:10.654Z,6.88
2022-12-28T08:21:40.737Z,7.05
2022-12-28T08:24:14.182Z,6.97
2022-12-28T08:26:42.309Z,7.05
2022-12-28T08:29:12.334Z,7.17
2022-12-28T08:31:42.077Z,7.05
2022-12-28T08:34:13.818Z,6.81
2022-12-28T08:36:41.772Z,7.20
2022-12-28T08:39:10.967Z,7.15
2022-12-28T08:41:38.860Z,7.10
2022-12-28T08:44:07.218Z,7.13
2022-12-28T08:46:37.028Z,7.23
2022-12-28T08:49:05.762Z,7.39
2022-12-28T08:51:35.255Z,7.45
2022-12-28T08:54:04.089Z,7.48
2022-12-28T08:56:35.008Z,7.63
2022-12-28T08:59:02.997Z,7.58
2022-12-28T09:01:38.954Z,7.61
2022-12-28T09:04:15.220Z,7.83
2022-12-28T09:06:43.192Z,8.03
2022-12-28T09:09:13.164Z,8.13
2022-12-28T09:11:42.215Z,8.22
2022-12-28T09:14:18.477Z,7.96
2022-12-28T09:16:50.157Z,8.02
2022-12-28T09:19:17.819Z,8.13
2022-12-28T09:21:48.859Z,8.24
2022-12-28T09:24:16.575Z,8.34
2022-12-28T09:26:45.759Z,8.58
2022-12-28T09:29:14.657Z,8.34
2022-12-28T09:31:44.296Z,8.13
2022-12-28T09:37:01.372Z,7.97
2022-12-28T09:39:29.555Z,7.70
2022-12-28T09:42:01.368Z,7.89
2022-12-28T09:44:41.066Z,7.86
2022-12-28T09:47:18.441Z,8.13
2022-12-28T09:49:56.952Z,8.24
2022-12-28T09:52:29.783Z,8.06
2022-12-28T09:55:06.127Z,8.17
2022-12-28T09:57:38.774Z,8.20
2022-12-28T10:00:15.869Z,8.34
2022-12-28T10:02:49.093Z,8.30
2022-12-28T10:05:17.036Z,8.65
2022-12-28T10:07:44.823Z,8.90
2022-12-28T10:10:17.463Z,8.92
2022-12-28T10:12:47.792Z,8.99
2022-12-28T10:15:15.977Z,8.91
2022-12-28T10:17:44.626Z,8.96
2022-12-28T10:20:17.776Z,8.79
2022-12-28T10:22:50.263Z,8.79
2022-12-28T10:25:20.555Z,8.71
2022-12-28T10:27:50.419Z,8.78
2022-12-28T10:30:20.811Z,8.77
2022-12-28T10:32:58.048Z,8.60
2022-12-28T10:35:33.185Z,8.77
2022-12-28T10:38:04.521Z,8.73
2022-12-28T10:40:34.618Z,8.83
2022-12-28T10:43:10.107Z,8.75
2022-12-28T10:45:42.047Z,8.71
2022-12-28T10:48:15.622Z,8.85
2022-12-28T10:50:52.468Z,9.13
2022-12-28T10:53:26.335Z,9.24
2022-12-28T10:56:06.704Z,9.40
2022-12-28T10:58:35.900Z,9.34
2022-12-28T11:01:08.650Z,9.29
2022-12-28T11:03:38.363Z,9.03
2022-12-28T11:06:22.732Z,8.97
2022-12-28T11:09:04.664Z,9.07
2022-12-28T11:11:32.550Z,9.08
2022-12-28T11:14:05.507Z,9.21
2022-12-28T11:16:37.802Z,9.09
2022-12-28T11:19:05.811Z,9.15
2022-12-28T11:21:35.906Z,9.28
2022-12-28T11:24:05.284Z,9.30
2022-12-28T11:26:34.668Z,9.34
2022-12-28T11:29:03.702Z,9.24
2022-12-28T11:31:36.058Z,9.27
2022-12-28T11:34:07.302Z,9.27
2022-12-28T11:36:40.471Z,8.98
2022-12-28T11:39:44.683Z,9.12
2022-12-28T11:42:39.078Z,9.11
2022-12-28T11:45:03.013Z,9.17
2022-12-28T11:47:33.894Z,9.31
2022-12-28T11:50:42.317Z,9.22
2022-12-28T11:53:54.855Z,9.09
2022-12-28T11:56:24.407Z,9.05
2022-12-28T11:59:23.085Z,9.40
2022-12-28T12:01:54.244Z,9.50
2022-12-28T12:04:43.299Z,9.20
2022-12-28T12:07:30.598Z,9.30
2022-12-28T12:10:21.156Z,9.42
2022-12-28T12:12:51.381Z,9.77
2022-12-28T12:15:21.470Z,9.38
2022-12-28T12:17:56.053Z,9.55
2022-12-28T12:20:45.319Z,9.44
2022-12-28T12:23:24.573Z,9.31
2022-12-28T12:25:54.624Z,9.36
2022-12-28T12:28:34.020Z,9.41
2022-12-28T12:31:04.020Z,9.38
2022-12-28T12:33:36.858Z,9.35
2022-12-28T12:36:21.332Z,9.50
2022-12-28T12:39:08.743Z,9.45
2022-12-28T12:41:46.841Z,9.23
2022-12-28T12:44:24.424Z,9.44
2022-12-28T12:47:21.531Z,9.56
2022-12-28T12:50:19.562Z,9.37
2022-12-28T12:52:55.747Z,9.37
2022-12-28T12:55:39.746Z,9.32
2022-12-28T12:58:17.475Z,9.31
2022-12-28T13:00:51.941Z,9.57
2022-12-28T13:03:29.298Z,9.46
2022-12-28T13:05:59.404Z,9.36
2022-12-28T13:08:32.177Z,9.54
2022-12-28T13:10:59.936Z,9.37
2022-12-28T13:13:32.087Z,9.55
2022-12-28T13:16:03.905Z,9.55
2022-12-28T13:18:48.106Z,9.54
2022-12-28T13:21:22.043Z,9.65
2022-12-28T13:23:51.840Z,9.60
2022-12-28T13:26:24.450Z,9.53
2022-12-28T13:28:56.747Z,9.55
2022-12-28T13:31:30.051Z,9.60
2022-12-28T13:33:59.528Z,9.67
2022-12-28T13:36:28.870Z,9.51
2022-12-28T13:39:12.629Z,9.60
2022-12-28T13:41:48.063Z,9.73
2022-12-28T13:44:48.419Z,9.76
2022-12-28T13:47:23.134Z,9.53
2022-12-28T13:49:57.802Z,9.77
2022-12-28T13:52:31.935Z,9.77
2022-12-28T13:55:04.522Z,9.72
2022-12-28T13:57:57.414Z,9.74
2022-12-28T14:00:24.065Z,9.83
2022-12-28T14:02:54.912Z,9.89
2022-12-28T14:05:25.982Z,9.93
2022-12-28T14:07:57.287Z,9.96
2022-12-28T14:10:25.599Z,9.91
2022-12-28T14:12:54.688Z,9.90
2022-12-28T14:15:23.225Z,10.01
2022-12-28T14:17:52.513Z,9.84
2022-12-28T14:20:20.363Z,9.85
2022-12-28T14:22:48.141Z,9.86
2022-12-28T14:25:19.588Z,9.85
2022-12-28T14:27:57.351Z,9.96
2022-12-28T14:30:27.625Z,9.81
2022-12-28T14:32:55.908Z,9.97
2022-12-28T14:35:25.705Z,9.90
2022-12-28T14:37:55.632Z,9.82
2022-12-28T14:40:29.034Z,9.95
2022-12-28T14:42:57.679Z,9.95
2022-12-28T14:46:05.872Z,10.00
2022-12-28T14:48:33.395Z,10.01
2022-12-28T14:51:03.814Z,9.70
2022-12-28T14:53:32.084Z,10.12
2022-12-28T14:56:06.173Z,10.18
2022-12-28T14:58:47.893Z,10.16
2022-12-28T15:01:20.596Z,10.02
2022-12-28T15:03:50.904Z,10.08
2022-12-28T15:06:19.985Z,9.85
2022-12-28T15:08:49.663Z,10.01
2022-12-28T15:11:20.423Z,9.90
2022-12-28T15:13:49.072Z,9.92
2022-12-28T15:16:18.383Z,9.97
2022-12-28T15:18:46.475Z,9.92
2022-12-28T15:21:17.292Z,10.08
2022-12-28T15:23:48.844Z,9.98
2022-12-28T15:26:16.487Z,9.85
2022-12-28T15:28:45.522Z,9.96
2022-12-28T15:31:15.197Z,9.94
2022-12-28T15:33:42.921Z,9.93
2022-12-28T15:36:17.335Z,10.03
2022-12-28T15:38:46.061Z,9.88
2022-12-28T15:41:27.862Z,9.99
2022-12-28T15:43:56.864Z,9.97
2022-12-28T15:46:24.677Z,10.03
2022-12-28T15:48:52.489Z,10.05
2022-12-28T15:51:20.442Z,9.94
2022-12-28T15:53:48.180Z,9.86
2022-12-28T15:56:21.630Z,10.10
2022-12-28T15:58:49.402Z,10.01
2022-12-28T16:01:18.542Z,10.07
2022-12-28T16:03:46.273Z,9.83
2022-12-28T16:06:13.942Z,9.90
2022-12-28T16:08:41.925Z,10.00
2022-12-28T16:11:11.012Z,9.65
2022-12-28T16:13:38.719Z,9.85
2022-12-28T16:16:07.003Z,9.85
2022-12-28T16:18:36.249Z,9.72
2022-12-28T16:21:06.102Z,9.75
2022-12-28T16:23:36.294Z,9.91
2022-12-28T16:26:04.952Z,9.90
2022-12-28T16:28:32.832Z,9.85
2022-12-28T16:31:00.540Z,9.93
2022-12-28T16:33:28.865Z,9.86
2022-12-28T16:35:59.871Z,9.85
2022-12-28T16:38:30.421Z,9.94
2022-12-28T16:40:58.172Z,10.06
2022-12-28T16:43:25.878Z,9.86
2022-12-28T16:45:54.639Z,10.00
2022-12-28T16:48:22.318Z,10.01
2022-12-28T16:50:59.732Z,10.15
2022-12-28T16:53:27.843Z,10.12
2022-12-28T16:55:56.460Z,10.14
2022-12-28T16:58:24.101Z,10.07
2022-12-28T17:00:52.611Z,10.09
2022-12-28T17:03:20.455Z,10.19
2022-12-28T17:05:50.911Z,9.97
2022-12-28T17:08:20.304Z,10.17
2022-12-28T17:10:48.195Z,10.16
2022-12-28T17:13:16.309Z,10.23
2022-12-28T17:15:45.738Z,10.27
2022-12-28T17:18:13.658Z,10.25
2022-12-28T17:20:42.075Z,10.12
2022-12-28T17:23:09.897Z,10.23
2022-12-28T17:25:38.887Z,10.11
2022-12-28T17:28:06.578Z,10.24
2022-12-28T17:30:34.945Z,10.19
2022-12-28T17:33:02.655Z,10.18
2022-12-28T17:35:30.507Z,10.12
2022-12-28T17:37:58.391Z,10.07
2022-12-28T17:40:26.039Z,9.89
2022-12-28T17:42:55.135Z,9.93
2022-12-28T17:45:22.847Z,10.06
2022-12-28T17:47:50.549Z,10.01
2022-12-28T17:50:19.985Z,10.01
2022-12-28T17:52:47.637Z,10.02
2022-12-28T17:55:15.551Z,9.46
2022-12-28T17:57:43.235Z,10.13
2022-12-28T18:00:13.804Z,10.02
2022-12-28T18:02:41.909Z,10.09
2022-12-28T18:05:10.536Z,9.92
2022-12-28T18:07:38.192Z,9.87
2022-12-28T18:10:06.644Z,9.89
2022-12-28T18:12:34.393Z,9.96
2022-12-28T18:15:02.092Z,9.93
2022-12-28T18:17:31.307Z,9.86
2022-12-28T18:19:58.965Z,9.97
2022-12-28T18:22:26.689Z,9.80
2022-12-28T18:24:54.740Z,9.91
2022-12-28T18:27:22.456Z,9.95
2022-12-28T18:29:51.997Z,9.93
2022-12-28T18:32:19.823Z,9.89
2022-12-28T18:34:48.825Z,9.77
2022-12-28T18:37:16.468Z,9.90
2022-12-28T18:39:44.122Z,9.80
2022-12-28T18:42:11.820Z,9.87
2022-12-28T18:44:39.476Z,9.75
2022-12-28T18:47:07.141Z,9.74
2022-12-28T18:49:34.773Z,9.76
2022-12-28T18:52:04.185Z,9.84
2022-12-28T18:54:32.012Z,10.03
2022-12-28T18:56:59.739Z,10.16
2022-12-28T18:59:27.536Z,10.15
2022-12-28T19:02:06.361Z,9.96
2022-12-28T19:04:34.967Z,10.04
2022-12-28T19:07:04.316Z,10.24
2022-12-28T19:09:32.168Z,10.22
2022-12-28T19:12:00.008Z,10.29
2022-12-28T19:14:27.769Z,10.35
2022-12-28T19:16:55.410Z,10.47
2022-12-28T19:19:23.116Z,10.48
2022-12-28T19:21:56.541Z,10.42
2022-12-28T19:24:27.702Z,10.43
2022-12-28T19:26:55.409Z,10.57
2022-12-28T19:29:23.781Z,10.62
2022-12-28T19:31:51.797Z,10.62
2022-12-28T19:34:19.551Z,10.74
2022-12-28T19:36:47.277Z,10.75
2022-12-28T19:39:14.975Z,10.71
2022-12-28T19:41:44.166Z,10.75
2022-12-28T19:44:12.016Z,10.83
2022-12-28T19:46:39.744Z,10.93
2022-12-28T19:49:07.426Z,11.02
2022-12-28T19:51:35.403Z,10.89
2022-12-28T19:54:03.401Z,10.92
2022-12-28T19:56:31.806Z,10.92
2022-12-28T19:59:06.209Z,10.93
2022-12-28T20:01:36.580Z,10.90
2022-12-28T20:04:12.297Z,10.93
2022-12-28T20:06:40.871Z,10.80
2022-12-28T20:09:08.839Z,10.85
2022-12-28T20:11:36.819Z,10.95
2022-12-28T20:14:07.016Z,10.98
2022-12-28T20:16:36.072Z,11.05
2022-12-28T20:19:06.598Z,11.06
2022-12-28T20:21:35.664Z,11.03
2022-12-28T20:24:03.715Z,11.02
2022-12-28T20:26:32.608Z,11.14
2022-12-28T20:29:01.347Z,11.10
2022-12-28T20:31:30.953Z,11.08
2022-12-28T20:33:58.877Z,11.17
2022-12-28T20:36:28.497Z,11.12
2022-12-28T20:38:57.349Z,11.27
2022-12-28T20:41:45.545Z,11.16
2022-12-28T20:44:15.675Z,11.11
2022-12-28T20:46:45.410Z,11.10
2022-12-28T20:49:14.037Z,11.22
2022-12-28T20:51:42.264Z,11.23
2022-12-28T20:54:10.595Z,11.26
2022-12-28T20:56:38.598Z,11.13
2022-12-28T20:59:07.261Z,10.90
2022-12-28T21:01:36.055Z,11.18
2022-12-28T21:04:24.791Z,11.06
2022-12-28T21:07:13.067Z,11.18
2022-12-28T21:10:01.037Z,11.01
2022-12-28T21:12:48.985Z,11.19
2022-12-28T21:15:40.699Z,11.12
2022-12-28T21:18:28.617Z,11.15
2022-12-28T21:21:19.814Z,11.11
2022-12-28T21:24:08.298Z,11.18
2022-12-28T21:26:56.297Z,11.30
2022-12-28T21:29:44.252Z,11.31
2022-12-28T21:32:32.235Z,11.27
2022-12-28T21:35:20.182Z,11.26
2022-12-28T21:38:09.521Z,11.22
2022-12-28T21:40:59.297Z,11.32
2022-12-28T21:43:47.249Z,11.29
2022-12-28T21:46:35.372Z,11.15
2022-12-28T21:49:23.365Z,11.14
2022-12-28T21:52:11.352Z,11.13
2022-12-28T21:55:21.179Z,10.68
2022-12-28T21:58:09.358Z,11.08
2022-12-28T22:01:17.969Z,11.04
2022-12-28T22:04:23.508Z,11.09
2022-12-28T22:07:14.906Z,11.02
2022-12-28T22:10:22.773Z,11.05
2022-12-28T22:13:10.741Z,11.04
2022-12-28T22:15:58.774Z,10.95
2022-12-28T22:19:02.154Z,11.01
2022-12-28T22:21:50.940Z,10.99
2022-12-28T22:24:38.865Z,11.05
2022-12-28T22:27:28.289Z,10.82
2022-12-28T22:30:16.345Z,10.89
2022-12-28T22:33:04.748Z,10.84
2022-12-28T22:35:52.640Z,10.92
2022-12-28T22:38:40.828Z,10.83
2022-12-28T22:41:28.837Z,10.86
2022-12-28T22:44:18.174Z,10.75
2022-12-28T22:47:06.254Z,10.89
2022-12-28T22:49:54.279Z,11.02
2022-12-28T22:52:42.557Z,10.75
2022-12-28T22:55:30.481Z,10.72
2022-12-28T22:58:18.409Z,10.83
2022-12-28T23:01:10.539Z,10.91
2022-12-28T23:03:58.529Z,10.99
2022-12-28T23:06:46.645Z,11.09
2022-12-28T23:09:34.758Z,11.08
2022-12-28T23:12:22.726Z,11.07
2022-12-28T23:15:19.410Z,11.10
2022-12-28T23:18:22.752Z,11.20
2022-12-28T23:21:35.703Z,11.13
2022-12-28T23:24:41.495Z,11.16
2022-12-28T23:27:34.498Z,11.21
2022-12-28T23:30:23.274Z,11.15
2022-12-28T23:33:12.690Z,11.16
2022-12-28T23:36:02.567Z,11.23
2022-12-28T23:38:51.690Z,11.28
2022-12-28T23:41:48.928Z,11.09
2022-12-28T23:44:36.931Z,11.24
2022-12-28T23:47:24.941Z,11.24
2022-12-28T23:50:16.081Z,11.23
2022-12-28T23:53:04.047Z,11.23
2022-12-28T23:55:51.953Z,11.26
2022-12-28T23:58:39.929Z,11.21
